Latest Coastal Weather Observations for Yarram Airport

IDV60701

Issued at 4:45 pm EDT Saturday 25 October 2014 (issued every 10 minutes, with the page automatically refreshed every 10 minutes)

About coastal observations | Map of coastal stations | Coastal observations for VIC | Marine services | Other Formats
Station Details ID: 085151 Name: YARRAM AIRPORT Lat: -38.56 Lon: 146.75 Height: 17.9 m
Data from the previous 72 hours. | See also: Recent months at Yarram Airport
Date/Time
EDT
Temp

°C
Wind Pressure Rain
since 9am
mm
Weather Cloud Vis
km
Sea
Height
m
Swell
Dir
 
Speed
knots
Gust
knots
hPa Trend Height
m
Period
s
Dir
25/04:30pm 15.2 SE 8 11 1015.4 - 0.0 - - - - - - -
25/04:00pm 15.5 SE 11 14 1015.3 - 0.0 - - - - - - -
25/03:30pm 17.0 SSW 11 13 1015.2 - 0.0 - - - - - - -
25/03:00pm 18.8 SSW 13 16 1015.2 - 0.0 - - - - - - -
25/02:30pm 18.8 SSW 12 17 1015.2 - 0.0 - - - - - - -
25/02:00pm 18.7 SSW 11 15 1015.3 - 0.0 - - - - - - -
25/01:30pm 18.1 SSW 13 17 1015.4 - 0.0 - - - - - - -
25/01:00pm 18.5 SSW 7 10 1015.5 - 0.0 - - - - - - -
25/12:30pm 18.1 SW 8 11 1015.8 - 0.0 - - - - - - -
25/12:00pm 17.8 W 8 15 1016.1 - 0.0 - - - - - - -
25/11:30am 16.8 SW 10 14 1016.8 - 0.0 - - - - - - -
25/11:00am 16.4 SW 12 16 1017.4 - 0.0 - - - - - - -
25/10:30am 16.3 WSW 13 17 1017.5 - 0.0 - - - - - - -
25/10:00am 15.5 WSW 11 16 1017.5 - 0.0 - - - - - - -
25/09:30am 14.7 WSW 12 16 1017.5 - 0.0 - - - - - - -
25/09:00am 14.9 WSW 11 15 1017.4 - 0.2 - - - - - - -
25/08:30am 14.5 WSW 12 16 1017.2 - 0.2 - - - - - - -
25/08:00am 13.9 W 8 11 1017.2 - 0.2 - - - - - - -
25/07:30am 13.6 WSW 9 11 1016.9 - 0.2 - - - - - - -
25/07:00am 13.6 WSW 10 12 1016.4 - 0.2 - - - - - - -
25/06:30am 13.4 WSW 13 17 1016.4 - 0.2 - - - - - - -
25/06:00am 13.3 WSW 12 16 1016.0 - 0.2 - - - - - - -
25/05:30am 13.6 WSW 11 15 1015.7 - 0.2 - - - - - - -
25/05:00am 13.8 W 14 19 1015.2 - 0.2 - - - - - - -
25/04:30am 13.7 W 15 20 1015.1 - 0.2 - - - - - - -
25/04:00am 13.9 WSW 15 20 1015.0 - 0.2 - - - - - - -
25/03:30am 13.8 WSW 12 15 1015.1 - 0.2 - - - - - - -
25/03:00am 13.7 WSW 13 19 1014.8 - 0.2 - - - - - - -
25/02:30am 14.2 W 19 26 1014.5 - 0.2 - - - - - - -
25/02:00am 14.5 W 18 23 1014.4 - 0.2 - - - - - - -
25/01:30am 14.6 WSW 17 23 1014.5 - 0.2 - - - - - - -
25/01:00am 14.0 W 15 19 1014.6 - 0.2 - - - - - - -
25/12:30am 14.0 WSW 13 17 1014.4 - 0.2 - - - - - - -
25/12:00am 14.8 W 13 18 1014.2 - 0.2 - - - - - - -
 
Date/Time
EDT
Temp

°C
Wind Pressure Rain
since 9am
mm
Weather Cloud Vis
km
Sea
Height
m
Swell
Dir
 
Speed
knots
Gust
knots
hPa Trend Height
m
Period
s
Dir
24/11:30pm 15.3 W 12 19 1014.2 - 0.2 - - - - - - -
24/11:00pm 15.2 W 13 18 1014.1 - 0.2 - - - - - - -
24/10:30pm 15.2 W 11 14 1013.9 - 0.2 - - - - - - -
24/10:00pm 15.8 WSW 19 24 1013.7 - 0.2 - - - - - - -
24/09:30pm 15.8 WSW 16 20 1013.4 - 0.2 - - - - - - -
24/09:00pm 16.9 WSW 15 20 1013.0 - 0.2 - - - - - - -
24/08:30pm 16.6 WSW 9 13 1012.1 - 0.2 - - - - - - -
24/08:00pm 17.2 WSW 9 11 1011.6 - 0.2 - - - - - - -
24/07:30pm 18.4 WSW 9 12 1011.2 - 0.2 - - - - - - -
24/07:00pm 20.1 SW 11 15 1010.7 - 0.2 - - - - - - -
24/06:30pm 21.7 SW 11 14 1010.2 - 0.2 - - - - - - -
24/06:00pm 23.0 SW 14 18 1009.9 - 0.2 - - - - - - -
24/05:30pm 24.2 S 10 13 1009.7 - 0.2 - - - - - - -
24/05:00pm 25.2 SSE 3 7 1009.3 - 0.2 - - - - - - -
24/04:30pm 24.4 ESE 4 6 1009.5 - 0.2 - - - - - - -
24/04:00pm 23.7 SE 3 5 1009.7 - 0.2 - - - - - - -
24/03:30pm 23.0 ESE 3 5 1009.7 - 0.2 - - - - - - -
24/03:00pm 22.4 SE 6 7 1009.7 - 0.2 - - - - - - -
24/02:30pm 24.2 SSE 6 8 1010.2 - 0.2 - - - - - - -
24/02:00pm 23.6 S 6 8 1010.3 - 0.2 - - - - - - -
24/01:30pm 23.7 S 3 5 1010.4 - 0.2 - - - - - - -
24/01:00pm 22.4 SSW 3 6 1010.6 - 0.2 - - - - - - -
24/12:30pm 21.7 SW 4 7 1010.9 - 0.2 - - - - - - -
24/12:00pm 20.6 WNW 1 5 1011.1 - 0.0 - - - - - - -
24/11:30am 19.8 CALM 0 0 1011.5 - 0.0 - - - - - - -
24/11:00am 19.6 NNE 4 6 1011.9 - 0.0 - - - - - - -
24/10:30am 18.4 ENE 3 6 1012.1 - 0.0 - - - - - - -
24/10:00am 16.9 ENE 4 5 1012.6 - 0.0 - - - - - - -
24/09:30am 16.1 NE 5 7 1012.7 - 0.0 - - - - - - -
24/09:00am 15.8 ENE 6 10 1013.0 - 1.0 - - - - - - -
24/08:30am 15.9 ENE 8 13 1013.4 - 1.0 - - - - - - -
24/08:00am 15.6 ENE 8 11 1013.8 - 1.0 - - - - - - -
24/07:30am 15.7 ENE 6 7 1014.1 - 1.0 - - - - - - -
24/07:00am 15.7 ENE 7 12 1014.2 - 1.0 - - - - - - -
24/06:30am 15.7 ENE 9 13 1014.3 - 1.0 - - - - - - -
24/06:00am 15.8 E 7 11 1014.4 - 1.0 - - - - - - -
24/05:30am 15.8 ENE 8 11 1014.6 - 1.0 - - - - - - -
24/05:00am 15.8 ENE 9 14 1014.7 - 1.0 - - - - - - -
24/04:30am 15.7 ENE 9 17 1014.9 - 1.0 - - - - - - -
24/04:00am 15.6 ENE 11 17 1015.0 - 1.0 - - - - - - -
24/03:30am 15.5 ENE 10 15 1015.6 - 1.0 - - - - - - -
24/03:00am 15.4 E 10 15 1016.1 - 1.0 Rain - - - - - -
24/02:30am 15.3 ENE 10 15 1016.6 - 0.8 - - - - - - -
24/02:00am 15.3 E 13 19 1017.0 - 0.8 - - - - - - -
24/01:30am 15.2 E 13 21 1017.7 - 0.8 - - - - - - -
24/01:00am 15.0 E 11 18 1018.2 - 0.6 - - - - - - -
24/12:30am 14.9 E 13 19 1018.6 - 0.4 - - - - - - -
24/12:00am 14.9 E 13 19 1018.9 - 0.0 - - - - - - -
 
Date/Time
EDT
Temp

°C
Wind Pressure Rain
since 9am
mm
Weather Cloud Vis
km
Sea
Height
m
Swell
Dir
 
Speed
knots
Gust
knots
hPa Trend Height
m
Period
s
Dir
23/11:30pm 14.9 E 13 17 1019.2 - 0.0 - - - - - - -
23/11:00pm 14.8 E 14 19 1019.5 - 0.0 - - - - - - -
23/10:30pm 14.7 E 13 19 1019.8 - 0.0 - - - - - - -
23/10:00pm 14.6 E 13 22 1020.1 - 0.0 - - - - - - -
23/09:30pm 14.7 E 14 21 1020.3 - 0.0 - - - - - - -
23/09:00pm 14.5 E 13 19 1020.4 - 0.0 - - - - - - -
23/08:30pm 14.5 E 14 19 1020.5 - 0.0 - - - - - - -
23/08:00pm 14.6 E 13 19 1020.3 - 0.0 - - - - - - -
23/07:30pm 14.5 E 15 22 1020.3 - 0.0 - - - - - - -
23/07:00pm 14.6 E 13 21 1020.2 - 0.0 - - - - - - -
23/06:30pm 14.7 E 13 23 1020.1 - 0.0 - - - - - - -
23/06:00pm 14.7 E 14 24 1020.0 - 0.0 - - - - - - -
23/05:30pm 15.2 E 16 22 1020.2 - 0.0 - - - - - - -
23/05:00pm 15.7 E 13 17 1020.1 - 0.0 - - - - - - -
23/04:30pm 16.0 E 16 21 1020.1 - 0.0 - - - - - - -
23/04:00pm 16.4 E 13 19 1020.2 - 0.0 - - - - - - -
23/03:30pm 15.8 E 15 20 1020.3 - 0.0 - - - - - - -
23/03:00pm 16.0 E 15 21 1020.5 - 0.0 - - - - - - -
23/02:30pm 16.0 E 15 21 1020.9 - 0.0 - - - - - - -
23/02:00pm 15.9 E 13 18 1021.2 - 0.0 - - - - - - -
23/01:30pm 15.7 E 15 20 1021.3 - 0.0 - - - - - - -
23/01:00pm 15.7 E 13 20 1021.3 - 0.0 - - - - - - -
23/12:30pm 15.5 E 13 21 1021.4 - 0.0 - - - - - - -
23/12:00pm 15.7 E 15 19 1021.6 - 0.0 - - - - - - -
23/11:30am 15.6 E 13 19 1021.7 - 0.0 - - - - - - -
23/11:00am 15.8 E 11 18 1021.8 - 0.0 - - - - - - -
23/10:30am 15.6 E 9 15 1021.6 - 0.0 - - - - - - -
23/10:00am 15.5 E 9 15 1021.4 - 0.0 - - - - - - -
23/09:30am 15.3 E 8 11 1021.2 - 0.0 - - - - - - -
23/09:00am 15.4 S 3 4 1020.9 - 0.0 - - - - - - -
23/08:30am 15.4 SW 5 6 1020.8 - 0.0 - - - - - - -
23/08:00am 15.0 SW 4 5 1020.5 - 0.0 - - - - - - -
23/07:30am 14.2 WSW 4 6 1020.1 - 0.0 - - - - - - -
23/07:00am 13.5 W 4 6 1019.8 - 0.0 - - - - - - -
23/06:30am 12.7 WSW 6 8 1019.4 - 0.0 - - - - - - -
23/06:00am 13.6 SW 8 10 1018.9 - 0.0 - - - - - - -
23/05:30am 13.9 SW 10 13 1018.2 - 0.0 - - - - - - -
23/05:00am 14.2 SW 10 12 1017.7 - 0.0 - - - - - - -
23/04:30am 14.5 SW 12 16 1017.1 - 0.0 - - - - - - -
23/04:00am 15.2 SW 12 16 1016.3 - 0.0 - - - - - - -
23/03:30am 15.9 SSW 11 16 1015.5 - 0.0 - - - - - - -
23/03:00am 17.1 WSW 7 11 1014.8 - 0.0 - - - - - - -
23/02:30am 20.1 NNW 11 18 1015.2 - 0.0 - - - - - - -
23/02:00am 19.8 NW 18 25 1016.8 - 0.0 - - - - - - -
23/01:30am 18.5 W 12 17 1017.1 - 0.0 - - - - - - -
23/01:00am 18.0 WNW 9 11 1016.9 - 0.0 - - - - - - -
23/12:30am 16.3 W 6 9 1016.6 - 0.0 - - - - - - -
23/12:00am 15.6 NNE 4 5 1016.3 - 0.0 - - - - - - -
 
Date/Time
EDT
Temp

°C
Wind Pressure Rain
since 9am
mm
Weather Cloud Vis
km
Sea
Height
m
Swell
Dir
 
Speed
knots
Gust
knots
hPa Trend Height
m
Period
s
Dir
22/11:30pm 16.2 SE 2 5 1016.1 - 0.0 - - - - - - -
22/11:00pm 16.3 NW 4 8 1016.5 - 0.0 - - - - - - -
22/10:30pm 16.5 N 7 8 1016.1 - 0.0 - - - - - - -
22/10:00pm 16.8 SE 7 9 1016.6 - 0.0 - - - - - - -
22/09:30pm 16.9 SE 5 6 1016.1 - 0.0 - - - - - - -
22/09:00pm 18.3 NE 6 9 1015.7 - 0.0 - - - - - - -
22/08:30pm 18.5 E 7 10 1015.3 - 0.0 - - - - - - -
22/08:00pm 18.8 E 7 9 1015.1 - 0.0 - - - - - - -
22/07:30pm 19.0 ESE 6 7 1015.2 - 0.0 - - - - - - -
22/07:00pm 21.8 E 5 7 1014.9 - 0.0 - - - - - - -
22/06:30pm 23.8 E 5 7 1015.0 - 0.0 - - - - - - -
22/06:00pm 24.9 ENE 8 11 1014.8 - 0.0 - - - - - - -
22/05:30pm 25.4 E 9 13 1015.2 - 0.0 - - - - - - -
22/05:00pm 26.0 ESE 9 11 1015.4 - 0.0 - - - - - - -

Other Formats:

Comma delimited format used in spreadsheet applications
http://www.bom.gov.au/fwo/IDV60701/IDV60701.95890.axf

JavaScript Object Notation format (JSON) in row-major order
http://www.bom.gov.au/fwo/IDV60701/IDV60701.95890.json